Time;durP1;ratioP1;P1;durP2;ratioP2;P2;SDS_P1;SDS_P2;PMS_P1;PMS_P2;Temp;Humidity;BMP_temperature;BMP_pressure;BME280_temperature;BME280_humidity;BME280_pressure;Samples;Min_cycle;Max_cycle;Signal;HPM_P1;HPM_P2
2023/08/27 00:00:52;;;;;;;;;;;;;;;24.04;53.46;95231.88;9934527;29;1950;-68
2023/08/27 00:05:52;;;;;;;;;;;;;;;24.05;53.46;95240.59;9934496;29;1963;-68
2023/08/27 00:10:56;;;;;;;;;;;;;;;24.08;53.45;95218.78;9932002;29;1995;-69
2023/08/27 00:15:57;;;;;;;;;;;;;;;24.08;53.40;95202.91;9916754;29;4568;-68
2023/08/27 00:20:57;;;;;;;;;;;;;;;24.06;53.20;95197.91;9931656;29;1924;-68
2023/08/27 00:25:57;;;;;;;;;;;;;;;24.00;53.19;95196.47;9930002;29;1981;-68
2023/08/27 00:31:03;;;;;;;;;;;;;;;24.00;53.25;95199.13;9926737;29;2028;-68
2023/08/27 00:36:03;;;;;;;;;;;;;;;23.97;53.35;95210.31;9929020;29;1961;-68
2023/08/27 00:41:03;;;;;;;;;;;;;;;23.96;53.19;95203.47;9928359;29;2273;-69
2023/08/27 00:46:05;;;;;;;;;;;;;;;23.93;53.16;95169.66;9929464;29;2055;-69
2023/08/27 00:51:05;;;;;;;;;;;;;;;23.96;53.08;95163.75;9931476;29;1986;-69
2023/08/27 00:56:06;;;;;;;;;;;;;;;23.95;53.28;95166.69;9932168;29;2006;-68
2023/08/27 01:01:06;;;;;;;;;;;;;;;23.93;53.25;95140.53;9929195;29;2026;-68
2023/08/27 01:06:07;;;;;;;;;;;;;;;23.93;52.97;95132.59;9934276;29;1964;-68
2023/08/27 01:11:10;;;;;;;;;;;;;;;23.92;53.09;95122.34;9930674;29;1937;-69
2023/08/27 01:16:10;;;;;;;;;;;;;;;23.90;53.10;95111.28;9931805;29;4492;-68
2023/08/27 01:21:23;;;;;;;;;;;;;;;23.86;53.13;95118.28;9930038;29;2037;-68
2023/08/27 01:26:39;;;;;;;;;;;;;;;23.68;52.92;95121.97;9928203;29;2061;-69
2023/08/27 01:31:39;;;;;;;;;;;;;;;23.72;53.31;95114.97;9930352;29;1914;-69
2023/08/27 01:36:40;;;;;;;;;;;;;;;23.73;53.07;95098.78;9905515;29;2849;-69
2023/08/27 01:41:40;;;;;;;;;;;;;;;23.81;53.26;95086.66;9924809;29;2115;-68
2023/08/27 01:46:40;;;;;;;;;;;;;;;23.79;53.08;95094.91;9914406;29;2362;-68
2023/08/27 01:51:41;;;;;;;;;;;;;;;23.83;53.26;95095.06;9928099;29;2009;-68
2023/08/27 01:56:41;;;;;;;;;;;;;;;23.84;53.17;95091.34;9930374;29;2143;-68
2023/08/27 02:01:43;;;;;;;;;;;;;;;23.88;53.29;95082.47;9926994;29;2016;-66
2023/08/27 02:06:43;;;;;;;;;;;;;;;23.91;53.10;95091.63;9916715;29;1931;-68
2023/08/27 02:11:43;;;;;;;;;;;;;;;23.95;53.22;95092.56;9929551;29;1972;-68
2023/08/27 02:16:43;;;;;;;;;;;;;;;23.95;53.21;95090.72;9929528;29;4525;-68
2023/08/27 02:21:44;;;;;;;;;;;;;;;23.98;53.24;95087.47;9927545;29;2041;-68
2023/08/27 02:26:44;;;;;;;;;;;;;;;24.03;53.31;95089.16;9922690;29;1974;-68
2023/08/27 02:31:44;;;;;;;;;;;;;;;24.04;53.10;95096.06;9939394;29;1994;-67
2023/08/27 02:36:45;;;;;;;;;;;;;;;24.08;53.20;95102.28;9937784;29;2244;-68
2023/08/27 02:41:45;;;;;;;;;;;;;;;24.10;53.04;95105.41;9936000;29;1971;-68
2023/08/27 02:46:45;;;;;;;;;;;;;;;24.08;52.95;95121.59;9936191;29;2057;-67
2023/08/27 02:51:45;;;;;;;;;;;;;;;24.08;52.99;95115.53;9916700;29;1932;-68
2023/08/27 02:56:46;;;;;;;;;;;;;;;24.08;53.22;95121.59;9933502;29;2218;-68
2023/08/27 03:01:46;;;;;;;;;;;;;;;24.09;53.11;95119.75;9937144;29;2003;-68
2023/08/27 03:06:46;;;;;;;;;;;;;;;24.11;53.17;95113.03;9940210;29;1903;-68
2023/08/27 03:11:46;;;;;;;;;;;;;;;24.12;53.02;95111.16;9939115;29;2077;-68
2023/08/27 03:16:47;;;;;;;;;;;;;;;24.14;53.09;95109.78;9936069;29;1975;-68
2023/08/27 03:21:47;;;;;;;;;;;;;;;24.16;53.14;95120.81;9935664;29;1933;-67
2023/08/27 03:26:48;;;;;;;;;;;;;;;24.17;53.14;95132.97;9938667;29;2285;-68
2023/08/27 03:31:50;;;;;;;;;;;;;;;24.19;53.28;95144.03;9935950;29;2269;-67
2023/08/27 03:36:50;;;;;;;;;;;;;;;24.19;53.33;95153.84;9931397;29;6016;-67
2023/08/27 03:41:50;;;;;;;;;;;;;;;24.19;53.02;95136.06;9938424;29;5429;-68
2023/08/27 03:46:51;;;;;;;;;;;;;;;24.20;53.13;95097.13;9924917;29;1911;-68
2023/08/27 03:51:51;;;;;;;;;;;;;;;24.15;53.41;95100.72;9934126;29;5386;-68
2023/08/27 03:56:51;;;;;;;;;;;;;;;24.17;53.34;95122.38;9936992;29;1981;-68
2023/08/27 04:01:52;;;;;;;;;;;;;;;24.18;53.43;95136.41;9936171;29;1956;-67
2023/08/27 04:06:54;;;;;;;;;;;;;;;24.20;53.51;95119.13;9917399;29;5359;-67
2023/08/27 04:11:55;;;;;;;;;;;;;;;24.20;53.41;95137.66;9919348;29;1944;-67
2023/08/27 04:16:55;;;;;;;;;;;;;;;24.21;53.17;95139.19;9930095;29;2048;-68
2023/08/27 04:21:55;;;;;;;;;;;;;;;24.21;53.11;95156.97;9926458;29;1994;-67
2023/08/27 04:26:58;;;;;;;;;;;;;;;24.22;53.15;95155.88;9928978;29;2125;-67
2023/08/27 04:31:58;;;;;;;;;;;;;;;24.22;53.16;95146.06;9929172;29;2238;-67
2023/08/27 04:37:00;;;;;;;;;;;;;;;24.24;53.32;95137.81;9927684;29;2074;-67
2023/08/27 04:42:01;;;;;;;;;;;;;;;24.25;53.10;95139.38;9930230;29;6265;-68
2023/08/27 04:47:01;;;;;;;;;;;;;;;24.24;53.19;95149.19;9932429;29;1948;-68
2023/08/27 04:52:03;;;;;;;;;;;;;;;24.22;53.01;95153.22;9929953;29;2282;-68
2023/08/27 04:57:04;;;;;;;;;;;;;;;24.23;52.96;95144.97;9934531;29;2056;-68
2023/08/27 05:02:04;;;;;;;;;;;;;;;24.23;53.11;95138.91;9916727;29;2059;-68
2023/08/27 05:07:04;;;;;;;;;;;;;;;24.21;53.08;95159.63;9926908;29;1986;-67
2023/08/27 05:12:05;;;;;;;;;;;;;;;24.19;53.13;95172.41;9912998;29;1988;-68
2023/08/27 05:17:05;;;;;;;;;;;;;;;24.17;53.03;95175.34;9910587;29;2087;-67
2023/08/27 05:22:05;;;;;;;;;;;;;;;24.11;53.06;95157.28;9926032;29;1991;-68
2023/08/27 05:27:05;;;;;;;;;;;;;;;24.07;53.28;95165.03;9927996;29;2015;-68
2023/08/27 05:32:06;;;;;;;;;;;;;;;24.06;53.19;95186.53;9910480;29;2038;-67
2023/08/27 05:37:06;;;;;;;;;;;;;;;24.01;53.19;95184.78;9921939;29;1956;-68
2023/08/27 05:42:06;;;;;;;;;;;;;;;23.97;53.09;95181.19;9929132;29;5034;-67
2023/08/27 05:47:07;;;;;;;;;;;;;;;23.96;53.13;95179.66;9928105;29;2233;-67
2023/08/27 05:52:07;;;;;;;;;;;;;;;23.97;53.37;95175.91;9923885;29;2106;-68
2023/08/27 05:57:07;;;;;;;;;;;;;;;23.96;53.26;95182.28;9922033;29;2112;-67
2023/08/27 06:02:13;;;;;;;;;;;;;;;23.96;53.30;95177.00;9922782;29;2010;-67
2023/08/27 06:07:13;;;;;;;;;;;;;;;24.01;53.34;95173.41;9928068;29;1990;-67
2023/08/27 06:12:14;;;;;;;;;;;;;;;24.00;53.21;95195.69;9929625;29;2010;-67
2023/08/27 06:17:14;;;;;;;;;;;;;;;24.00;53.19;95201.78;9914638;29;1915;-67
2023/08/27 06:22:14;;;;;;;;;;;;;;;24.01;53.50;95208.59;9928433;29;2201;-68
2023/08/27 06:27:14;;;;;;;;;;;;;;;23.99;53.24;95210.78;9931883;29;2069;-68
2023/08/27 06:32:16;;;;;;;;;;;;;;;23.96;53.15;95210.63;9914732;29;1959;-68
2023/08/27 06:37:16;;;;;;;;;;;;;;;23.94;53.48;95207.50;9914396;29;2349;-68
2023/08/27 06:42:16;;;;;;;;;;;;;;;23.93;53.51;95205.94;9925365;29;4532;-69
2023/08/27 06:47:16;;;;;;;;;;;;;;;23.94;53.63;95197.72;9928242;29;1956;-69
2023/08/27 06:52:20;;;;;;;;;;;;;;;23.94;53.34;95191.63;9912409;29;1911;-69
2023/08/27 06:57:21;;;;;;;;;;;;;;;23.93;53.35;95185.53;9930819;29;1947;-68
2023/08/27 07:02:21;;;;;;;;;;;;;;;23.95;53.27;95182.59;9926484;29;1986;-68
2023/08/27 07:07:21;;;;;;;;;;;;;;;23.99;53.21;95183.53;9917778;29;2039;-68
2023/08/27 07:12:22;;;;;;;;;;;;;;;24.02;53.45;95167.81;9935023;29;2026;-66
2023/08/27 07:17:22;;;;;;;;;;;;;;;24.09;53.48;95162.88;9933240;29;1937;-66
2023/08/27 07:22:22;;;;;;;;;;;;;;;24.14;53.37;95162.72;9936579;29;2070;-69
2023/08/27 07:27:22;;;;;;;;;;;;;;;24.18;53.28;95189.38;9935494;29;2268;-66
2023/08/27 07:32:23;;;;;;;;;;;;;;;24.11;53.51;95192.47;9916200;29;2295;-66
2023/08/27 07:37:23;;;;;;;;;;;;;;;24.10;53.34;95206.81;9926034;29;2125;-67
2023/08/27 07:42:23;;;;;;;;;;;;;;;24.09;53.17;95209.75;9927779;29;4524;-67
2023/08/27 07:47:23;;;;;;;;;;;;;;;24.13;53.20;95198.22;9930444;29;1980;-71
2023/08/27 07:52:24;;;;;;;;;;;;;;;24.07;53.43;95215.34;9933543;29;1951;-72
2023/08/27 07:57:24;;;;;;;;;;;;;;;24.04;53.58;95208.03;9934461;29;2403;-72
2023/08/27 08:02:24;;;;;;;;;;;;;;;23.99;53.81;95210.78;9930410;29;1907;-72
2023/08/27 08:07:25;;;;;;;;;;;;;;;23.98;53.59;95193.34;9935546;29;1982;-72
2023/08/27 08:12:26;;;;;;;;;;;;;;;23.94;53.39;95189.75;9921496;29;1989;-73
2023/08/27 08:17:26;;;;;;;;;;;;;;;23.93;53.39;95185.53;9932048;29;2124;-73
2023/08/27 08:22:26;;;;;;;;;;;;;;;23.93;53.65;95182.91;9929599;29;2010;-72
2023/08/27 08:27:26;;;;;;;;;;;;;;;23.94;53.71;95203.00;9932678;29;2324;-71
2023/08/27 08:32:27;;;;;;;;;;;;;;;23.93;53.61;95185.53;9933632;29;1918;-72
2023/08/27 08:37:27;;;;;;;;;;;;;;;23.86;53.51;95195.81;9931230;29;1878;-72
2023/08/27 08:42:30;;;;;;;;;;;;;;;23.86;53.52;95193.19;9934034;29;4587;-72
2023/08/27 08:47:30;;;;;;;;;;;;;;;23.74;53.95;95205.44;9934389;29;1911;-72
2023/08/27 08:52:31;;;;;;;;;;;;;;;23.79;53.88;95211.34;9933874;29;1899;-72
2023/08/27 08:57:31;;;;;;;;;;;;;;;23.75;54.04;95205.13;9934512;29;1813;-72
2023/08/27 09:02:31;;;;;;;;;;;;;;;23.76;53.77;95211.94;9933611;29;2015;-72
2023/08/27 09:07:32;;;;;;;;;;;;;;;23.77;53.97;95210.09;9933640;29;1907;-72
2023/08/27 09:12:34;;;;;;;;;;;;;;;23.70;54.24;95205.25;9915529;29;1880;-72
2023/08/27 09:17:35;;;;;;;;;;;;;;;23.71;53.84;95214.75;9930999;29;1975;-72
2023/08/27 09:22:35;;;;;;;;;;;;;;;23.65;54.09;95210.69;9921474;29;2311;-72
2023/08/27 09:27:36;;;;;;;;;;;;;;;23.58;53.92;95223.56;9936777;29;1840;-72
2023/08/27 09:32:36;;;;;;;;;;;;;;;23.61;53.97;95222.19;9931934;29;1855;-72
2023/08/27 09:37:39;;;;;;;;;;;;;;;23.50;54.21;95237.53;9931886;29;1989;-72
2023/08/27 09:42:39;;;;;;;;;;;;;;;23.43;54.14;95247.78;9929823;29;4438;-72
2023/08/27 09:47:40;;;;;;;;;;;;;;;23.27;54.09;95233.31;9919602;29;1924;-72
2023/08/27 09:52:41;;;;;;;;;;;;;;;23.12;53.80;95223.16;9923360;29;1872;-71
2023/08/27 09:57:50;;;;;;;;;;;;;;;23.18;54.05;95221.94;9923650;29;1891;-70
2023/08/27 10:02:51;;;;;;;;;;;;;;;23.20;53.96;95211.84;9924960;29;1914;-70
2023/08/27 10:07:56;;;;;;;;;;;;;;;23.23;53.61;95216.50;9925593;29;2027;-69
2023/08/27 10:12:56;;;;;;;;;;;;;;;23.24;53.95;95199.56;9931182;29;1941;-70
2023/08/27 10:17:56;;;;;;;;;;;;;;;23.19;53.76;95218.19;9928565;29;2017;-70
2023/08/27 10:22:57;;;;;;;;;;;;;;;23.22;53.90;95212.31;9927130;29;2316;-70
2023/08/27 10:27:57;;;;;;;;;;;;;;;23.24;53.78;95196.94;9928259;29;2149;-70
2023/08/27 10:32:57;;;;;;;;;;;;;;;23.34;53.60;95172.88;9927917;29;1869;-71
2023/08/27 10:37:57;;;;;;;;;;;;;;;23.32;53.60;95183.00;9931843;29;1949;-71
2023/08/27 10:43:17;;;;;;;;;;;;;;;23.34;53.51;95194.06;9924989;29;4621;-70
2023/08/27 10:48:17;;;;;;;;;;;;;;;23.41;53.55;95186.47;9942801;29;1863;-70
2023/08/27 10:53:18;;;;;;;;;;;;;;;23.41;53.67;95189.13;9935180;29;1883;-70
2023/08/27 10:58:20;;;;;;;;;;;;;;;23.42;53.76;95209.97;9935718;29;1887;-72
2023/08/27 11:03:21;;;;;;;;;;;;;;;23.40;53.77;95198.13;9935369;29;1917;-70
2023/08/27 11:08:34;;;;;;;;;;;;;;;23.43;53.89;95213.41;9936225;29;1956;-71
2023/08/27 11:13:35;;;;;;;;;;;;;;;23.37;53.70;95220.66;9936124;29;1994;-72
2023/08/27 11:18:48;;;;;;;;;;;;;;;23.32;53.20;95217.38;9932385;29;2153;-72
2023/08/27 11:24:07;;;;;;;;;;;;;;;23.33;53.34;95211.00;9935738;29;1908;-70
2023/08/27 11:29:08;;;;;;;;;;;;;;;23.37;53.31;95214.59;9932380;29;1903;-71
2023/08/27 11:34:12;;;;;;;;;;;;;;;23.31;52.90;95223.69;9934829;29;2002;-71
2023/08/27 11:39:14;;;;;;;;;;;;;;;23.21;53.05;95231.91;9930238;29;1918;-70
2023/08/27 11:44:16;;;;;;;;;;;;;;;23.14;52.90;95242.13;9935143;29;4623;-69
2023/08/27 11:49:27;;;;;;;;;;;;;;;23.09;52.79;95236.97;9922263;29;2002;-69
2023/08/27 11:54:30;;;;;;;;;;;;;;;23.06;53.07;95240.22;9932428;29;2277;-71
2023/08/27 11:59:33;;;;;;;;;;;;;;;23.09;52.80;95247.53;9931613;29;1915;-71
2023/08/27 12:04:34;;;;;;;;;;;;;;;23.03;52.90;95252.16;9930547;29;1994;-71
2023/08/27 12:09:34;;;;;;;;;;;;;;;23.01;53.04;95253.53;9919313;29;1867;-71
2023/08/27 12:14:35;;;;;;;;;;;;;;;22.90;53.07;95273.34;9935788;29;2304;-71
2023/08/27 12:19:36;;;;;;;;;;;;;;;22.93;53.10;95278.84;9929529;29;1894;-71
2023/08/27 12:24:40;;;;;;;;;;;;;;;23.11;53.21;95285.03;9933908;29;1907;-70
2023/08/27 12:29:41;;;;;;;;;;;;;;;23.23;53.14;95270.19;9939196;29;1946;-70
2023/08/27 12:34:44;;;;;;;;;;;;;;;23.34;53.35;95252.22;9936181;29;1698;-68
2023/08/27 12:39:45;;;;;;;;;;;;;;;23.44;53.19;95236.09;9937321;29;1896;-68
2023/08/27 12:44:45;;;;;;;;;;;;;;;23.51;53.12;95241.75;9932579;29;4625;-66
2023/08/27 12:49:45;;;;;;;;;;;;;;;23.57;52.88;95256.41;9937195;29;1393;-66
2023/08/27 12:54:45;;;;;;;;;;;;;;;23.62;52.84;95258.91;9933476;29;1576;-67
2023/08/27 12:59:46;;;;;;;;;;;;;;;23.73;52.53;95254.94;9942090;29;1603;-66
2023/08/27 13:05:58;;;;;;;;;;;;;;;24.14;52.40;95254.63;10521405;27;1297934;-64
2023/08/27 13:10:58;;;;;;;;;;;;;;;24.07;52.63;95257.72;10504659;28;1557;-67
2023/08/27 13:15:58;;;;;;;;;;;;;;;24.07;52.51;95254.31;10509731;28;1867;-69
2023/08/27 13:21:00;;;;;;;;;;;;;;;24.07;52.19;95255.06;10497964;28;1942;-68
2023/08/27 13:26:00;;;;;;;;;;;;;;;24.11;52.46;95249.97;10504407;28;1884;-68
2023/08/27 13:31:00;;;;;;;;;;;;;;;24.11;52.40;95240.13;10496144;28;2021;-67
2023/08/27 13:36:01;;;;;;;;;;;;;;;24.12;52.46;95230.31;10522077;28;1934;-65
2023/08/27 13:41:01;;;;;;;;;;;;;;;24.12;52.40;95215.22;10501996;28;4377;-66
2023/08/27 13:46:01;;;;;;;;;;;;;;;24.13;52.38;95216.00;10522893;28;1967;-67
2023/08/27 13:51:01;;;;;;;;;;;;;;;24.14;52.49;95207.75;10516523;28;1862;-66
2023/08/27 13:56:02;;;;;;;;;;;;;;;24.14;52.46;95189.22;10511298;28;1812;-66
2023/08/27 14:01:02;;;;;;;;;;;;;;;24.17;52.59;95185.16;10519766;28;1910;-67
2023/08/27 14:06:03;;;;;;;;;;;;;;;23.85;52.00;95181.00;10511671;28;2286;-67
2023/08/27 14:11:03;;;;;;;;;;;;;;;23.67;52.05;95155.59;10523094;28;2065;-69
2023/08/27 14:16:03;;;;;;;;;;;;;;;23.75;52.54;95144.25;10498142;28;1951;-68
2023/08/27 14:21:04;;;;;;;;;;;;;;;23.83;52.30;95156.72;10501205;28;1989;-68
2023/08/27 14:26:04;;;;;;;;;;;;;;;23.88;52.71;95147.84;10490350;28;2050;-68
2023/08/27 14:31:04;;;;;;;;;;;;;;;23.92;52.66;95149.59;10485180;28;1944;-68
2023/08/27 14:36:05;;;;;;;;;;;;;;;23.95;52.67;95158.75;10487641;28;2032;-68
2023/08/27 14:41:05;;;;;;;;;;;;;;;23.91;52.45;95179.78;10485547;28;1975;-68
2023/08/27 14:46:05;;;;;;;;;;;;;;;23.93;52.34;95182.13;10487332;28;1885;-68
2023/08/27 14:51:05;;;;;;;;;;;;;;;23.96;52.48;95194.75;10490600;28;1967;-68
2023/08/27 14:56:06;;;;;;;;;;;;;;;23.95;52.38;95206.41;10487544;28;2053;-68
2023/08/27 15:01:07;;;;;;;;;;;;;;;23.95;52.30;95209.06;10483688;28;2450;-68
2023/08/27 15:06:07;;;;;;;;;;;;;;;23.89;51.84;95216.38;10493418;28;1887;-68
2023/08/27 15:11:07;;;;;;;;;;;;;;;23.92;51.88;95215.75;10508436;28;1951;-69
2023/08/27 15:16:07;;;;;;;;;;;;;;;23.96;52.30;95216.72;10484915;28;2024;-68
2023/08/27 15:21:08;;;;;;;;;;;;;;;23.97;52.45;95218.25;10491449;28;2000;-67
2023/08/27 15:26:08;;;;;;;;;;;;;;;24.02;52.26;95209.41;10458165;28;2010;-68
2023/08/27 15:31:08;;;;;;;;;;;;;;;24.02;52.33;95209.41;10505223;28;1891;-69
2023/08/27 15:36:09;;;;;;;;;;;;;;;24.03;52.16;95195.06;10488233;28;1854;-68
2023/08/27 15:41:09;;;;;;;;;;;;;;;24.03;52.09;95192.41;10469557;28;4510;-68
2023/08/27 15:46:10;;;;;;;;;;;;;;;24.04;52.16;95197.44;10486454;28;1893;-69
2023/08/27 15:51:11;;;;;;;;;;;;;;;24.06;52.25;95205.88;10481521;28;1898;-68
2023/08/27 15:56:11;;;;;;;;;;;;;;;24.07;52.24;95218.00;10447857;28;2260;-69
2023/08/27 16:01:13;;;;;;;;;;;;;;;24.06;52.15;95213.81;10484646;28;1906;-69
2023/08/27 16:06:13;;;;;;;;;;;;;;;24.05;51.75;95208.81;10490279;28;2022;-69
2023/08/27 16:11:13;;;;;;;;;;;;;;;24.05;52.03;95211.47;10483933;28;1880;-67
2023/08/27 16:16:13;;;;;;;;;;;;;;;24.00;51.72;95204.41;10482869;28;1925;-68
2023/08/27 16:21:14;;;;;;;;;;;;;;;24.00;51.75;95208.94;10477148;28;2040;-68
2023/08/27 16:26:14;;;;;;;;;;;;;;;23.98;51.83;95198.66;10487965;28;2017;-69
2023/08/27 16:31:21;;;;;;;;;;;;;;;23.99;52.11;95194.13;10486522;28;1896;-69
2023/08/27 16:36:21;;;;;;;;;;;;;;;24.01;52.04;95192.72;10485452;28;1997;-70
2023/08/27 16:41:23;;;;;;;;;;;;;;;24.03;52.24;95193.22;10490676;28;1973;-68
2023/08/27 16:46:23;;;;;;;;;;;;;;;24.06;52.21;95187.31;10495303;28;1868;-66
2023/08/27 16:51:23;;;;;;;;;;;;;;;24.08;52.21;95190.44;10491158;28;2054;-68
2023/08/27 16:56:24;;;;;;;;;;;;;;;24.09;52.28;95186.69;10482153;28;2416;-69
2023/08/27 17:01:24;;;;;;;;;;;;;;;24.09;52.08;95189.34;10465619;28;2003;-69
2023/08/27 17:06:24;;;;;;;;;;;;;;;24.09;52.25;95189.34;10467633;28;1893;-67
2023/08/27 17:11:24;;;;;;;;;;;;;;;24.11;52.18;95197.75;10484431;28;1971;-67
2023/08/27 17:16:25;;;;;;;;;;;;;;;24.10;52.29;95203.38;10493445;28;1481;-66
2023/08/27 17:21:25;;;;;;;;;;;;;;;24.12;52.21;95204.63;10494323;28;1973;-68
2023/08/27 17:26:25;;;;;;;;;;;;;;;24.11;52.13;95212.88;10496619;28;1564;-68
2023/08/27 17:31:26;;;;;;;;;;;;;;;24.12;52.30;95227.66;10498347;28;1394;-68
2023/08/27 17:36:27;;;;;;;;;;;;;;;24.09;52.39;95230.94;10477325;28;1437;-67
2023/08/27 17:41:28;;;;;;;;;;;;;;;24.09;52.28;95244.94;10476005;28;4531;-67
2023/08/27 17:46:28;;;;;;;;;;;;;;;24.11;52.21;95239.38;10474191;28;1502;-68
2023/08/27 17:51:28;;;;;;;;;;;;;;;24.10;52.14;95243.88;10476110;28;2305;-67
2023/08/27 17:56:29;;;;;;;;;;;;;;;24.11;52.14;95237.47;10493545;28;1871;-67
2023/08/27 18:01:29;;;;;;;;;;;;;;;24.11;52.27;95240.13;10491082;28;1923;-67
2023/08/27 18:06:33;;;;;;;;;;;;;;;24.07;52.07;95259.59;10514472;28;2025;-68
2023/08/27 18:11:33;;;;;;;;;;;;;;;24.00;51.83;95265.31;10487949;28;1971;-68
2023/08/27 18:16:33;;;;;;;;;;;;;;;23.97;51.84;95279.16;10484348;28;2058;-68
2023/08/27 18:21:34;;;;;;;;;;;;;;;23.93;52.00;95280.84;10489771;28;1997;-68
2023/08/27 18:26:34;;;;;;;;;;;;;;;23.90;51.85;95292.06;10486806;28;1994;-68
2023/08/27 18:31:34;;;;;;;;;;;;;;;23.85;51.60;95294.03;10487792;28;1919;-67
2023/08/27 18:36:35;;;;;;;;;;;;;;;23.82;51.81;95299.97;10494355;28;1895;-68
2023/08/27 18:41:35;;;;;;;;;;;;;;;23.88;51.25;95307.47;10486195;28;4460;-67
2023/08/27 18:46:38;;;;;;;;;;;;;;;24.03;51.14;95317.66;10490758;28;2377;-67
2023/08/27 18:51:38;;;;;;;;;;;;;;;24.15;50.74;95317.88;10481566;28;1990;-67
2023/08/27 18:56:39;;;;;;;;;;;;;;;24.23;50.75;95338.28;10477729;28;1964;-67
2023/08/27 19:01:39;;;;;;;;;;;;;;;24.28;50.17;95333.97;10481570;28;2072;-68
2023/08/27 19:06:39;;;;;;;;;;;;;;;24.36;49.65;95335.88;10474195;28;2030;-67
2023/08/27 19:11:40;;;;;;;;;;;;;;;24.37;49.41;95350.66;10477003;28;2030;-67
2023/08/27 19:16:43;;;;;;;;;;;;;;;24.33;49.41;95368.25;10458355;28;1926;-67
2023/08/27 19:21:44;;;;;;;;;;;;;;;24.33;49.44;95350.50;10476075;28;1906;-66
2023/08/27 19:26:44;;;;;;;;;;;;;;;24.34;49.04;95362.66;10485546;28;2095;-69
2023/08/27 19:31:44;;;;;;;;;;;;;;;24.40;49.29;95363.31;10488634;28;1910;-69
2023/08/27 19:36:44;;;;;;;;;;;;;;;24.41;48.94;95352.41;10468741;28;2042;-69
2023/08/27 19:41:45;;;;;;;;;;;;;;;24.42;49.09;95361.13;10479480;28;4484;-70
2023/08/27 19:46:45;;;;;;;;;;;;;;;24.36;48.94;95362.38;10482481;28;2036;-74
2023/08/27 19:51:45;;;;;;;;;;;;;;;24.39;49.02;95365.16;10483074;28;1916;-69
2023/08/27 19:56:46;;;;;;;;;;;;;;;24.38;48.75;95360.19;10480274;28;2063;-68
2023/08/27 20:01:46;;;;;;;;;;;;;;;24.37;48.90;95369.22;10484724;28;1922;-69
2023/08/27 20:06:46;;;;;;;;;;;;;;;24.31;48.83;95365.13;10484703;28;2086;-69
2023/08/27 20:11:47;;;;;;;;;;;;;;;24.32;48.83;95375.41;10485382;28;1921;-68
2023/08/27 20:16:47;;;;;;;;;;;;;;;24.20;49.39;95376.00;10484510;28;1895;-65
2023/08/27 20:21:47;;;;;;;;;;;;;;;24.14;49.81;95369.28;10490548;28;2012;-65
2023/08/27 20:26:47;;;;;;;;;;;;;;;24.04;50.06;95372.19;10489512;28;1898;-65
2023/08/27 20:31:48;;;;;;;;;;;;;;;23.99;50.33;95374.94;10482806;28;1864;-65
2023/08/27 20:36:48;;;;;;;;;;;;;;;23.91;50.76;95375.66;10480804;28;1927;-65
2023/08/27 20:41:48;;;;;;;;;;;;;;;23.87;50.79;95360.69;10487780;28;4444;-65
2023/08/27 20:46:48;;;;;;;;;;;;;;;23.76;50.94;95364.69;10490545;28;1977;-66
2023/08/27 20:51:50;;;;;;;;;;;;;;;23.70;50.85;95369.31;10482785;28;1916;-65
2023/08/27 20:56:50;;;;;;;;;;;;;;;23.67;51.13;95363.84;10485312;28;1884;-65
2023/08/27 21:01:50;;;;;;;;;;;;;;;23.59;51.36;95365.38;10491626;28;1903;-65
2023/08/27 21:06:51;;;;;;;;;;;;;;;23.57;51.29;95372.81;10490283;28;1917;-65
2023/08/27 21:11:51;;;;;;;;;;;;;;;23.54;51.24;95381.34;10484524;28;1943;-65
2023/08/27 21:16:52;;;;;;;;;;;;;;;23.50;51.06;95385.69;10487870;28;1932;-65
2023/08/27 21:21:52;;;;;;;;;;;;;;;23.42;51.38;95394.34;10492674;28;1910;-65
2023/08/27 21:26:52;;;;;;;;;;;;;;;23.44;51.31;95405.41;10487780;28;1805;-65
2023/08/27 21:31:53;;;;;;;;;;;;;;;23.42;51.13;95396.97;10506302;28;1930;-65
2023/08/27 21:36:53;;;;;;;;;;;;;;;23.44;51.36;95398.25;10502785;28;2288;-65
2023/08/27 21:41:53;;;;;;;;;;;;;;;23.41;51.31;95401.47;10501602;28;1909;-65
2023/08/27 21:46:53;;;;;;;;;;;;;;;23.42;51.37;95405.72;10505698;28;1812;-65
2023/08/27 21:51:54;;;;;;;;;;;;;;;23.44;51.23;95397.47;10500535;28;1967;-65
2023/08/27 21:56:54;;;;;;;;;;;;;;;23.40;51.30;95402.56;10501935;28;1952;-66
2023/08/27 22:01:54;;;;;;;;;;;;;;;23.37;51.07;95399.72;10498060;28;2194;-65
2023/08/27 22:06:54;;;;;;;;;;;;;;;23.34;51.26;95403.00;10490048;28;1971;-65
2023/08/27 22:11:55;;;;;;;;;;;;;;;23.31;51.42;95403.53;10510270;28;1845;-65
2023/08/27 22:16:55;;;;;;;;;;;;;;;23.31;51.26;95401.69;10498928;28;1949;-65
2023/08/27 22:21:55;;;;;;;;;;;;;;;23.32;51.40;95407.78;10474453;28;1944;-65
2023/08/27 22:26:55;;;;;;;;;;;;;;;23.30;51.28;95404.63;10496225;28;1879;-65
2023/08/27 22:31:56;;;;;;;;;;;;;;;23.29;51.05;95408.34;10500514;28;2291;-65
2023/08/27 22:36:56;;;;;;;;;;;;;;;23.25;51.37;95412.66;10479708;28;1996;-64
2023/08/27 22:41:56;;;;;;;;;;;;;;;23.23;51.22;95405.03;10490918;28;4678;-64
2023/08/27 22:46:56;;;;;;;;;;;;;;;23.23;51.19;95405.03;10483063;28;1792;-65
2023/08/27 22:51:57;;;;;;;;;;;;;;;23.25;51.35;95388.88;10485856;28;1952;-66
2023/08/27 22:56:57;;;;;;;;;;;;;;;23.28;51.38;95385.63;10486823;28;1976;-64
2023/08/27 23:01:57;;;;;;;;;;;;;;;23.27;51.41;95378.78;10496192;28;1913;-65
2023/08/27 23:06:57;;;;;;;;;;;;;;;23.25;51.59;95365.84;10491122;28;1972;-64
2023/08/27 23:11:58;;;;;;;;;;;;;;;23.28;51.17;95362.63;10495016;28;1863;-64
2023/08/27 23:16:58;;;;;;;;;;;;;;;23.27;51.54;95368.19;10488964;28;1840;-65
2023/08/27 23:21:58;;;;;;;;;;;;;;;23.25;51.43;95359.78;10486491;28;1961;-65
2023/08/27 23:26:59;;;;;;;;;;;;;;;23.23;51.51;95359.28;10487066;28;1969;-65
2023/08/27 23:31:59;;;;;;;;;;;;;;;23.21;51.28;95356.97;10496433;28;2031;-65
2023/08/27 23:37:00;;;;;;;;;;;;;;;23.25;51.61;95359.78;10484311;28;2017;-65
2023/08/27 23:42:00;;;;;;;;;;;;;;;23.27;51.33;95347.81;10487771;28;4652;-65
2023/08/27 23:47:00;;;;;;;;;;;;;;;23.26;51.36;95346.28;10486785;28;1967;-65
2023/08/27 23:52:00;;;;;;;;;;;;;;;23.20;51.22;95339.53;10489629;28;2009;-65
2023/08/27 23:57:01;;;;;;;;;;;;;;;23.24;51.34;95331.78;10488379;28;1923;-65
